sensor_id;sensor_type;location;lat;lon;timestamp;P1;durP1;ratioP1;P2;durP2;ratioP2
62332;SDS011;48624;49.812;8.562;2022-09-28T00:02:05;5.57;;;2.75;;
62332;SDS011;48624;49.812;8.562;2022-09-28T00:04:30;3.72;;;2.47;;
62332;SDS011;48624;49.812;8.562;2022-09-28T00:06:57;5.10;;;2.92;;
62332;SDS011;48624;49.812;8.562;2022-09-28T00:09:24;7.50;;;3.35;;
62332;SDS011;48624;49.812;8.562;2022-09-28T00:11:50;5.80;;;2.55;;
62332;SDS011;48624;49.812;8.562;2022-09-28T00:14:16;3.90;;;3.10;;
62332;SDS011;48624;49.812;8.562;2022-09-28T00:16:42;5.13;;;3.28;;
62332;SDS011;48624;49.812;8.562;2022-09-28T00:19:08;4.95;;;3.03;;
62332;SDS011;48624;49.812;8.562;2022-09-28T00:21:36;7.47;;;3.28;;
62332;SDS011;48624;49.812;8.562;2022-09-28T00:24:03;6.78;;;3.47;;
62332;SDS011;48624;49.812;8.562;2022-09-28T00:29:14;6.63;;;4.18;;
62332;SDS011;48624;49.812;8.562;2022-09-28T00:31:43;7.97;;;3.90;;
62332;SDS011;48624;49.812;8.562;2022-09-28T00:34:09;6.30;;;3.70;;
62332;SDS011;48624;49.812;8.562;2022-09-28T00:36:34;7.20;;;4.28;;
62332;SDS011;48624;49.812;8.562;2022-09-28T00:39:04;10.93;;;4.68;;
62332;SDS011;48624;49.812;8.562;2022-09-28T00:41:30;8.75;;;4.72;;
62332;SDS011;48624;49.812;8.562;2022-09-28T00:46:46;9.95;;;5.13;;
62332;SDS011;48624;49.812;8.562;2022-09-28T00:49:14;6.70;;;5.18;;
62332;SDS011;48624;49.812;8.562;2022-09-28T00:51:44;8.85;;;4.82;;
62332;SDS011;48624;49.812;8.562;2022-09-28T00:54:11;8.90;;;4.95;;
62332;SDS011;48624;49.812;8.562;2022-09-28T00:56:39;7.45;;;4.78;;
62332;SDS011;48624;49.812;8.562;2022-09-28T00:59:08;7.47;;;4.80;;
62332;SDS011;48624;49.812;8.562;2022-09-28T01:01:34;7.72;;;4.85;;
62332;SDS011;48624;49.812;8.562;2022-09-28T01:04:00;10.65;;;5.50;;
62332;SDS011;48624;49.812;8.562;2022-09-28T01:06:27;11.15;;;5.25;;
62332;SDS011;48624;49.812;8.562;2022-09-28T01:08:58;12.63;;;5.88;;
62332;SDS011;48624;49.812;8.562;2022-09-28T01:11:27;8.10;;;5.30;;
62332;SDS011;48624;49.812;8.562;2022-09-28T01:13:55;8.18;;;5.32;;
62332;SDS011;48624;49.812;8.562;2022-09-28T01:21:58;8.93;;;5.15;;
62332;SDS011;48624;49.812;8.562;2022-09-28T01:24:38;8.93;;;4.93;;
62332;SDS011;48624;49.812;8.562;2022-09-28T01:27:19;10.50;;;5.55;;
62332;SDS011;48624;49.812;8.562;2022-09-28T01:38:19;8.88;;;5.00;;
62332;SDS011;48624;49.812;8.562;2022-09-28T01:40:49;9.20;;;5.22;;
62332;SDS011;48624;49.812;8.562;2022-09-28T01:43:16;6.55;;;4.03;;
62332;SDS011;48624;49.812;8.562;2022-09-28T01:45:47;9.70;;;4.57;;
62332;SDS011;48624;49.812;8.562;2022-09-28T01:48:23;7.13;;;4.28;;
62332;SDS011;48624;49.812;8.562;2022-09-28T01:51:05;11.77;;;4.85;;
62332;SDS011;48624;49.812;8.562;2022-09-28T01:53:36;8.70;;;4.70;;
62332;SDS011;48624;49.812;8.562;2022-09-28T01:56:06;10.23;;;4.40;;
62332;SDS011;48624;49.812;8.562;2022-09-28T01:58:37;8.23;;;4.53;;
62332;SDS011;48624;49.812;8.562;2022-09-28T02:01:20;8.38;;;4.60;;
62332;SDS011;48624;49.812;8.562;2022-09-28T02:04:02;9.95;;;5.20;;
62332;SDS011;48624;49.812;8.562;2022-09-28T02:06:36;7.38;;;4.88;;
62332;SDS011;48624;49.812;8.562;2022-09-28T02:09:10;8.00;;;5.05;;
62332;SDS011;48624;49.812;8.562;2022-09-28T02:11:42;9.65;;;5.45;;
62332;SDS011;48624;49.812;8.562;2022-09-28T02:14:13;12.60;;;5.18;;
62332;SDS011;48624;49.812;8.562;2022-09-28T02:16:42;12.35;;;6.25;;
62332;SDS011;48624;49.812;8.562;2022-09-28T02:19:13;6.93;;;5.43;;
62332;SDS011;48624;49.812;8.562;2022-09-28T02:24:22;10.63;;;5.93;;
62332;SDS011;48624;49.812;8.562;2022-09-28T02:26:59;8.90;;;6.22;;
62332;SDS011;48624;49.812;8.562;2022-09-28T02:29:32;11.52;;;6.90;;
62332;SDS011;48624;49.812;8.562;2022-09-28T02:31:57;9.73;;;7.03;;
62332;SDS011;48624;49.812;8.562;2022-09-28T02:34:23;9.00;;;5.93;;
62332;SDS011;48624;49.812;8.562;2022-09-28T02:36:48;11.38;;;5.85;;
62332;SDS011;48624;49.812;8.562;2022-09-28T02:39:14;14.43;;;7.55;;
62332;SDS011;48624;49.812;8.562;2022-09-28T02:47:20;17.33;;;6.65;;
62332;SDS011;48624;49.812;8.562;2022-09-28T02:52:52;12.43;;;5.80;;
62332;SDS011;48624;49.812;8.562;2022-09-28T03:00:32;9.82;;;5.50;;
62332;SDS011;48624;49.812;8.562;2022-09-28T03:03:17;9.90;;;4.97;;
62332;SDS011;48624;49.812;8.562;2022-09-28T03:06:09;11.00;;;4.95;;
62332;SDS011;48624;49.812;8.562;2022-09-28T03:08:44;10.88;;;5.03;;
62332;SDS011;48624;49.812;8.562;2022-09-28T03:11:35;9.00;;;5.10;;
62332;SDS011;48624;49.812;8.562;2022-09-28T03:14:07;7.65;;;4.97;;
62332;SDS011;48624;49.812;8.562;2022-09-28T03:16:34;9.88;;;5.30;;
62332;SDS011;48624;49.812;8.562;2022-09-28T03:18:59;6.03;;;3.28;;
62332;SDS011;48624;49.812;8.562;2022-09-28T03:21:24;7.03;;;3.70;;
62332;SDS011;48624;49.812;8.562;2022-09-28T03:23:49;7.97;;;3.45;;
62332;SDS011;48624;49.812;8.562;2022-09-28T03:26:16;7.38;;;3.55;;
62332;SDS011;48624;49.812;8.562;2022-09-28T03:28:42;13.63;;;5.50;;
62332;SDS011;48624;49.812;8.562;2022-09-28T03:31:08;9.70;;;6.05;;
62332;SDS011;48624;49.812;8.562;2022-09-28T03:33:33;12.68;;;6.40;;
62332;SDS011;48624;49.812;8.562;2022-09-28T03:35:59;6.47;;;3.95;;
62332;SDS011;48624;49.812;8.562;2022-09-28T03:38:24;5.00;;;2.75;;
62332;SDS011;48624;49.812;8.562;2022-09-28T03:40:56;5.43;;;2.42;;
62332;SDS011;48624;49.812;8.562;2022-09-28T03:43:24;2.95;;;2.08;;
62332;SDS011;48624;49.812;8.562;2022-09-28T03:45:59;3.63;;;2.50;;
62332;SDS011;48624;49.812;8.562;2022-09-28T03:48:26;5.55;;;2.72;;
62332;SDS011;48624;49.812;8.562;2022-09-28T03:50:54;3.75;;;2.30;;
62332;SDS011;48624;49.812;8.562;2022-09-28T03:53:20;5.80;;;2.20;;
62332;SDS011;48624;49.812;8.562;2022-09-28T03:55:45;5.90;;;2.90;;
62332;SDS011;48624;49.812;8.562;2022-09-28T03:58:10;4.40;;;2.60;;
62332;SDS011;48624;49.812;8.562;2022-09-28T04:00:39;7.50;;;3.05;;
62332;SDS011;48624;49.812;8.562;2022-09-28T04:03:04;3.90;;;2.63;;
62332;SDS011;48624;49.812;8.562;2022-09-28T04:05:31;5.57;;;2.78;;
62332;SDS011;48624;49.812;8.562;2022-09-28T04:07:57;6.53;;;2.47;;
62332;SDS011;48624;49.812;8.562;2022-09-28T04:10:25;4.20;;;2.80;;
62332;SDS011;48624;49.812;8.562;2022-09-28T04:12:56;4.13;;;2.90;;
62332;SDS011;48624;49.812;8.562;2022-09-28T04:15:22;7.85;;;2.95;;
62332;SDS011;48624;49.812;8.562;2022-09-28T04:17:49;5.55;;;3.05;;
62332;SDS011;48624;49.812;8.562;2022-09-28T04:20:14;6.55;;;2.70;;
62332;SDS011;48624;49.812;8.562;2022-09-28T04:22:40;5.97;;;3.17;;
62332;SDS011;48624;49.812;8.562;2022-09-28T04:25:05;6.97;;;3.67;;
62332;SDS011;48624;49.812;8.562;2022-09-28T04:27:31;5.13;;;3.70;;
62332;SDS011;48624;49.812;8.562;2022-09-28T04:30:15;7.15;;;3.42;;
62332;SDS011;48624;49.812;8.562;2022-09-28T04:32:42;4.72;;;3.50;;
62332;SDS011;48624;49.812;8.562;2022-09-28T04:35:07;8.40;;;4.00;;
62332;SDS011;48624;49.812;8.562;2022-09-28T04:37:35;5.43;;;3.13;;
62332;SDS011;48624;49.812;8.562;2022-09-28T04:40:00;7.28;;;3.97;;
62332;SDS011;48624;49.812;8.562;2022-09-28T04:42:27;6.80;;;3.95;;
62332;SDS011;48624;49.812;8.562;2022-09-28T04:44:52;9.77;;;3.95;;
62332;SDS011;48624;49.812;8.562;2022-09-28T04:47:17;9.73;;;3.97;;
62332;SDS011;48624;49.812;8.562;2022-09-28T04:49:44;7.35;;;4.00;;
62332;SDS011;48624;49.812;8.562;2022-09-28T04:52:09;7.50;;;4.72;;
62332;SDS011;48624;49.812;8.562;2022-09-28T04:54:34;7.40;;;4.38;;
62332;SDS011;48624;49.812;8.562;2022-09-28T04:57:00;9.30;;;4.38;;
62332;SDS011;48624;49.812;8.562;2022-09-28T04:59:27;8.95;;;4.70;;
62332;SDS011;48624;49.812;8.562;2022-09-28T05:01:52;7.13;;;4.28;;
62332;SDS011;48624;49.812;8.562;2022-09-28T05:04:18;9.18;;;5.40;;
62332;SDS011;48624;49.812;8.562;2022-09-28T05:06:43;9.23;;;5.32;;
62332;SDS011;48624;49.812;8.562;2022-09-28T05:09:08;12.57;;;7.55;;
62332;SDS011;48624;49.812;8.562;2022-09-28T05:11:34;13.90;;;7.97;;
62332;SDS011;48624;49.812;8.562;2022-09-28T05:13:59;11.02;;;7.07;;
62332;SDS011;48624;49.812;8.562;2022-09-28T05:16:24;19.38;;;8.20;;
62332;SDS011;48624;49.812;8.562;2022-09-28T05:18:56;12.63;;;8.07;;
62332;SDS011;48624;49.812;8.562;2022-09-28T05:21:22;16.77;;;8.27;;
62332;SDS011;48624;49.812;8.562;2022-09-28T05:23:49;13.10;;;7.97;;
62332;SDS011;48624;49.812;8.562;2022-09-28T05:26:15;13.63;;;7.10;;
62332;SDS011;48624;49.812;8.562;2022-09-28T05:28:40;16.60;;;8.05;;
62332;SDS011;48624;49.812;8.562;2022-09-28T05:31:05;12.10;;;7.30;;
62332;SDS011;48624;49.812;8.562;2022-09-28T05:33:31;16.33;;;7.63;;
62332;SDS011;48624;49.812;8.562;2022-09-28T05:35:57;14.40;;;7.10;;
62332;SDS011;48624;49.812;8.562;2022-09-28T05:38:23;9.77;;;6.00;;
62332;SDS011;48624;49.812;8.562;2022-09-28T05:40:48;7.93;;;5.53;;
62332;SDS011;48624;49.812;8.562;2022-09-28T05:43:14;11.15;;;5.78;;
62332;SDS011;48624;49.812;8.562;2022-09-28T05:45:39;11.85;;;6.15;;
62332;SDS011;48624;49.812;8.562;2022-09-28T05:48:05;12.40;;;5.93;;
62332;SDS011;48624;49.812;8.562;2022-09-28T05:50:30;9.80;;;5.70;;
62332;SDS011;48624;49.812;8.562;2022-09-28T05:53:01;13.15;;;6.70;;
62332;SDS011;48624;49.812;8.562;2022-09-28T05:55:28;15.75;;;7.13;;
62332;SDS011;48624;49.812;8.562;2022-09-28T05:57:58;15.23;;;6.47;;
62332;SDS011;48624;49.812;8.562;2022-09-28T06:00:24;13.82;;;7.32;;
62332;SDS011;48624;49.812;8.562;2022-09-28T06:02:54;12.63;;;6.20;;
62332;SDS011;48624;49.812;8.562;2022-09-28T06:05:20;11.73;;;6.40;;
62332;SDS011;48624;49.812;8.562;2022-09-28T06:07:45;12.05;;;6.40;;
62332;SDS011;48624;49.812;8.562;2022-09-28T06:10:10;10.18;;;6.30;;
62332;SDS011;48624;49.812;8.562;2022-09-28T06:12:36;9.00;;;5.80;;
62332;SDS011;48624;49.812;8.562;2022-09-28T06:15:01;9.88;;;6.25;;
62332;SDS011;48624;49.812;8.562;2022-09-28T06:17:26;10.18;;;6.85;;
62332;SDS011;48624;49.812;8.562;2022-09-28T06:19:52;13.73;;;6.95;;
62332;SDS011;48624;49.812;8.562;2022-09-28T06:22:18;12.05;;;6.82;;
62332;SDS011;48624;49.812;8.562;2022-09-28T06:24:43;13.50;;;7.25;;
62332;SDS011;48624;49.812;8.562;2022-09-28T06:27:08;14.82;;;7.70;;
62332;SDS011;48624;49.812;8.562;2022-09-28T06:29:33;11.68;;;6.80;;
62332;SDS011;48624;49.812;8.562;2022-09-28T06:31:59;13.98;;;7.00;;
62332;SDS011;48624;49.812;8.562;2022-09-28T06:34:26;12.52;;;7.05;;
62332;SDS011;48624;49.812;8.562;2022-09-28T06:36:51;12.27;;;6.85;;
62332;SDS011;48624;49.812;8.562;2022-09-28T06:39:16;12.50;;;6.95;;
62332;SDS011;48624;49.812;8.562;2022-09-28T06:41:42;12.95;;;7.40;;
62332;SDS011;48624;49.812;8.562;2022-09-28T06:44:07;15.25;;;8.15;;
62332;SDS011;48624;49.812;8.562;2022-09-28T06:46:32;15.85;;;7.00;;
62332;SDS011;48624;49.812;8.562;2022-09-28T06:48:57;12.88;;;6.93;;
62332;SDS011;48624;49.812;8.562;2022-09-28T06:51:23;13.15;;;7.35;;
62332;SDS011;48624;49.812;8.562;2022-09-28T06:53:49;14.07;;;6.82;;
62332;SDS011;48624;49.812;8.562;2022-09-28T06:56:17;12.85;;;7.22;;
62332;SDS011;48624;49.812;8.562;2022-09-28T06:58:45;14.38;;;6.93;;
62332;SDS011;48624;49.812;8.562;2022-09-28T07:01:10;14.63;;;6.47;;
62332;SDS011;48624;49.812;8.562;2022-09-28T07:03:35;12.73;;;7.10;;
62332;SDS011;48624;49.812;8.562;2022-09-28T07:06:01;14.43;;;7.63;;
62332;SDS011;48624;49.812;8.562;2022-09-28T07:08:28;14.45;;;7.10;;
62332;SDS011;48624;49.812;8.562;2022-09-28T07:10:53;12.88;;;7.22;;
62332;SDS011;48624;49.812;8.562;2022-09-28T07:13:20;15.07;;;7.47;;
62332;SDS011;48624;49.812;8.562;2022-09-28T07:15:47;17.90;;;8.32;;
62332;SDS011;48624;49.812;8.562;2022-09-28T07:18:13;17.63;;;8.32;;
62332;SDS011;48624;49.812;8.562;2022-09-28T07:20:38;14.35;;;7.47;;
62332;SDS011;48624;49.812;8.562;2022-09-28T07:23:04;13.20;;;7.55;;
62332;SDS011;48624;49.812;8.562;2022-09-28T07:25:31;14.52;;;6.78;;
62332;SDS011;48624;49.812;8.562;2022-09-28T07:28:00;11.40;;;6.05;;
62332;SDS011;48624;49.812;8.562;2022-09-28T07:30:27;9.18;;;6.15;;
62332;SDS011;48624;49.812;8.562;2022-09-28T07:32:57;8.15;;;5.35;;
62332;SDS011;48624;49.812;8.562;2022-09-28T07:35:23;9.32;;;5.40;;
62332;SDS011;48624;49.812;8.562;2022-09-28T07:37:48;6.28;;;4.10;;
62332;SDS011;48624;49.812;8.562;2022-09-28T07:40:22;4.32;;;3.38;;
62332;SDS011;48624;49.812;8.562;2022-09-28T07:43:06;5.95;;;2.42;;
62332;SDS011;48624;49.812;8.562;2022-09-28T07:45:31;6.45;;;2.95;;
62332;SDS011;48624;49.812;8.562;2022-09-28T07:48:00;3.85;;;2.72;;
62332;SDS011;48624;49.812;8.562;2022-09-28T07:50:26;5.75;;;3.53;;
62332;SDS011;48624;49.812;8.562;2022-09-28T07:52:51;5.93;;;3.90;;
62332;SDS011;48624;49.812;8.562;2022-09-28T07:55:17;4.22;;;2.20;;
62332;SDS011;48624;49.812;8.562;2022-09-28T07:57:42;5.00;;;2.65;;
62332;SDS011;48624;49.812;8.562;2022-09-28T08:00:12;6.35;;;2.45;;
62332;SDS011;48624;49.812;8.562;2022-09-28T08:02:43;4.70;;;2.30;;
62332;SDS011;48624;49.812;8.562;2022-09-28T08:05:09;2.05;;;1.50;;
62332;SDS011;48624;49.812;8.562;2022-09-28T08:07:35;2.80;;;1.25;;
62332;SDS011;48624;49.812;8.562;2022-09-28T08:10:02;2.97;;;1.27;;
62332;SDS011;48624;49.812;8.562;2022-09-28T08:12:28;5.43;;;2.17;;
62332;SDS011;48624;49.812;8.562;2022-09-28T08:14:53;2.88;;;1.23;;
62332;SDS011;48624;49.812;8.562;2022-09-28T08:17:19;4.13;;;1.70;;
62332;SDS011;48624;49.812;8.562;2022-09-28T08:19:45;5.85;;;1.85;;
62332;SDS011;48624;49.812;8.562;2022-09-28T08:22:28;2.53;;;1.40;;
62332;SDS011;48624;49.812;8.562;2022-09-28T08:24:56;3.47;;;1.20;;
62332;SDS011;48624;49.812;8.562;2022-09-28T08:27:21;5.45;;;1.05;;
62332;SDS011;48624;49.812;8.562;2022-09-28T08:29:46;2.75;;;1.10;;
62332;SDS011;48624;49.812;8.562;2022-09-28T08:32:12;1.80;;;0.70;;
62332;SDS011;48624;49.812;8.562;2022-09-28T08:34:38;2.00;;;1.00;;
62332;SDS011;48624;49.812;8.562;2022-09-28T08:37:05;1.20;;;0.80;;
62332;SDS011;48624;49.812;8.562;2022-09-28T08:39:33;3.00;;;1.10;;
62332;SDS011;48624;49.812;8.562;2022-09-28T08:42:02;1.90;;;0.90;;
62332;SDS011;48624;49.812;8.562;2022-09-28T08:44:51;4.68;;;1.00;;
62332;SDS011;48624;49.812;8.562;2022-09-28T08:47:33;3.70;;;1.15;;
62332;SDS011;48624;49.812;8.562;2022-09-28T08:50:33;2.78;;;1.10;;
62332;SDS011;48624;49.812;8.562;2022-09-28T08:53:11;1.13;;;0.68;;
62332;SDS011;48624;49.812;8.562;2022-09-28T08:55:48;2.42;;;0.88;;
62332;SDS011;48624;49.812;8.562;2022-09-28T08:58:19;2.72;;;1.05;;
62332;SDS011;48624;49.812;8.562;2022-09-28T09:00:48;2.38;;;0.65;;
62332;SDS011;48624;49.812;8.562;2022-09-28T09:03:19;3.25;;;0.82;;
62332;SDS011;48624;49.812;8.562;2022-09-28T09:11:44;3.22;;;0.90;;
62332;SDS011;48624;49.812;8.562;2022-09-28T09:20:16;0.70;;;0.50;;
62332;SDS011;48624;49.812;8.562;2022-09-28T09:25:18;1.42;;;0.52;;
62332;SDS011;48624;49.812;8.562;2022-09-28T09:39:00;1.85;;;0.70;;
62332;SDS011;48624;49.812;8.562;2022-09-28T09:42:13;1.20;;;0.50;;
62332;SDS011;48624;49.812;8.562;2022-09-28T09:44:39;0.75;;;0.75;;
62332;SDS011;48624;49.812;8.562;2022-09-28T09:47:18;3.97;;;0.68;;
62332;SDS011;48624;49.812;8.562;2022-09-28T09:49:49;1.60;;;0.52;;
62332;SDS011;48624;49.812;8.562;2022-09-28T09:57:37;0.73;;;0.35;;
62332;SDS011;48624;49.812;8.562;2022-09-28T10:00:10;7.32;;;1.00;;
62332;SDS011;48624;49.812;8.562;2022-09-28T10:02:37;0.70;;;0.50;;
62332;SDS011;48624;49.812;8.562;2022-09-28T10:05:05;2.47;;;0.82;;
62332;SDS011;48624;49.812;8.562;2022-09-28T10:10:29;1.42;;;0.73;;
62332;SDS011;48624;49.812;8.562;2022-09-28T10:12:57;0.65;;;0.50;;
62332;SDS011;48624;49.812;8.562;2022-09-28T10:15:24;2.78;;;0.75;;
62332;SDS011;48624;49.812;8.562;2022-09-28T10:17:54;3.70;;;0.65;;
62332;SDS011;48624;49.812;8.562;2022-09-28T10:20:22;0.95;;;0.30;;
62332;SDS011;48624;49.812;8.562;2022-09-28T10:22:49;2.40;;;0.43;;
62332;SDS011;48624;49.812;8.562;2022-09-28T10:25:16;2.13;;;0.45;;
62332;SDS011;48624;49.812;8.562;2022-09-28T10:27:42;2.45;;;0.50;;
62332;SDS011;48624;49.812;8.562;2022-09-28T10:32:48;2.28;;;0.30;;
62332;SDS011;48624;49.812;8.562;2022-09-28T10:45:43;1.80;;;0.40;;
62332;SDS011;48624;49.812;8.562;2022-09-28T10:48:18;2.35;;;0.47;;
62332;SDS011;48624;49.812;8.562;2022-09-28T10:50:59;0.95;;;0.50;;
62332;SDS011;48624;49.812;8.562;2022-09-28T10:53:29;2.78;;;0.38;;
62332;SDS011;48624;49.812;8.562;2022-09-28T10:55:56;2.17;;;0.40;;
62332;SDS011;48624;49.812;8.562;2022-09-28T11:01:04;0.80;;;0.50;;
62332;SDS011;48624;49.812;8.562;2022-09-28T11:03:46;1.25;;;0.50;;
62332;SDS011;48624;49.812;8.562;2022-09-28T11:06:24;1.50;;;0.40;;
62332;SDS011;48624;49.812;8.562;2022-09-28T11:08:51;1.23;;;0.55;;
62332;SDS011;48624;49.812;8.562;2022-09-28T11:11:18;1.23;;;0.38;;
62332;SDS011;48624;49.812;8.562;2022-09-28T11:13:51;1.65;;;0.40;;
62332;SDS011;48624;49.812;8.562;2022-09-28T11:16:25;0.63;;;0.20;;
62332;SDS011;48624;49.812;8.562;2022-09-28T11:18:51;1.13;;;0.40;;
62332;SDS011;48624;49.812;8.562;2022-09-28T11:21:17;2.25;;;0.40;;
62332;SDS011;48624;49.812;8.562;2022-09-28T11:26:45;1.30;;;0.30;;
62332;SDS011;48624;49.812;8.562;2022-09-28T11:32:06;1.27;;;0.68;;
62332;SDS011;48624;49.812;8.562;2022-09-28T11:34:36;1.02;;;0.65;;
62332;SDS011;48624;49.812;8.562;2022-09-28T11:43:12;2.42;;;0.50;;
62332;SDS011;48624;49.812;8.562;2022-09-28T11:46:08;1.10;;;0.50;;
62332;SDS011;48624;49.812;8.562;2022-09-28T11:48:51;0.47;;;0.22;;
62332;SDS011;48624;49.812;8.562;2022-09-28T11:51:22;0.35;;;0.30;;
62332;SDS011;48624;49.812;8.562;2022-09-28T11:53:54;1.40;;;0.43;;
62332;SDS011;48624;49.812;8.562;2022-09-28T11:56:31;1.45;;;0.30;;
62332;SDS011;48624;49.812;8.562;2022-09-28T11:59:04;0.70;;;0.30;;
62332;SDS011;48624;49.812;8.562;2022-09-28T12:02:19;1.33;;;0.45;;
62332;SDS011;48624;49.812;8.562;2022-09-28T12:04:40;1.60;;;0.55;;
62332;SDS011;48624;49.812;8.562;2022-09-28T12:10:02;0.80;;;0.40;;
62332;SDS011;48624;49.812;8.562;2022-09-28T12:12:33;0.60;;;0.40;;
62332;SDS011;48624;49.812;8.562;2022-09-28T12:15:24;1.55;;;0.70;;
62332;SDS011;48624;49.812;8.562;2022-09-28T12:17:53;0.35;;;0.30;;
62332;SDS011;48624;49.812;8.562;2022-09-28T12:20:26;2.08;;;0.30;;
62332;SDS011;48624;49.812;8.562;2022-09-28T12:25:52;1.02;;;0.35;;
62332;SDS011;48624;49.812;8.562;2022-09-28T12:28:27;2.78;;;0.70;;
62332;SDS011;48624;49.812;8.562;2022-09-28T12:30:56;1.65;;;0.30;;
62332;SDS011;48624;49.812;8.562;2022-09-28T12:33:29;2.55;;;0.32;;
62332;SDS011;48624;49.812;8.562;2022-09-28T12:36:01;2.38;;;0.63;;
62332;SDS011;48624;49.812;8.562;2022-09-28T12:39:02;2.05;;;0.43;;
62332;SDS011;48624;49.812;8.562;2022-09-28T12:42:02;1.00;;;0.35;;
62332;SDS011;48624;49.812;8.562;2022-09-28T12:44:38;3.03;;;0.40;;
62332;SDS011;48624;49.812;8.562;2022-09-28T12:58:34;0.88;;;0.40;;
62332;SDS011;48624;49.812;8.562;2022-09-28T13:01:14;1.95;;;0.50;;
62332;SDS011;48624;49.812;8.562;2022-09-28T13:04:26;1.35;;;0.40;;
62332;SDS011;48624;49.812;8.562;2022-09-28T13:18:21;0.70;;;0.50;;
62332;SDS011;48624;49.812;8.562;2022-09-28T13:21:09;1.17;;;0.40;;
62332;SDS011;48624;49.812;8.562;2022-09-28T13:23:39;2.03;;;0.55;;
62332;SDS011;48624;49.812;8.562;2022-09-28T13:28:38;0.65;;;0.50;;
62332;SDS011;48624;49.812;8.562;2022-09-28T13:31:07;2.65;;;0.50;;
62332;SDS011;48624;49.812;8.562;2022-09-28T13:33:35;2.05;;;0.50;;
62332;SDS011;48624;49.812;8.562;2022-09-28T13:37:06;3.00;;;0.60;;
62332;SDS011;48624;49.812;8.562;2022-09-28T13:38:50;2.10;;;0.50;;
62332;SDS011;48624;49.812;8.562;2022-09-28T13:41:32;1.73;;;0.47;;
62332;SDS011;48624;49.812;8.562;2022-09-28T13:46:45;1.75;;;0.28;;
62332;SDS011;48624;49.812;8.562;2022-09-28T14:08:27;1.83;;;0.50;;
62332;SDS011;48624;49.812;8.562;2022-09-28T14:14:05;0.63;;;0.20;;
62332;SDS011;48624;49.812;8.562;2022-09-28T14:16:50;0.80;;;0.25;;
62332;SDS011;48624;49.812;8.562;2022-09-28T14:19:28;1.10;;;0.57;;
62332;SDS011;48624;49.812;8.562;2022-09-28T14:33:01;1.67;;;0.40;;
62332;SDS011;48624;49.812;8.562;2022-09-28T14:35:47;0.55;;;0.22;;
62332;SDS011;48624;49.812;8.562;2022-09-28T14:38:18;1.45;;;0.20;;
62332;SDS011;48624;49.812;8.562;2022-09-28T14:41:23;1.85;;;0.40;;
62332;SDS011;48624;49.812;8.562;2022-09-28T14:44:10;0.95;;;0.30;;
62332;SDS011;48624;49.812;8.562;2022-09-28T14:46:39;0.38;;;0.35;;
62332;SDS011;48624;49.812;8.562;2022-09-28T14:51:53;0.68;;;0.40;;
62332;SDS011;48624;49.812;8.562;2022-09-28T14:54:26;0.80;;;0.22;;
62332;SDS011;48624;49.812;8.562;2022-09-28T14:59:26;1.30;;;0.30;;
62332;SDS011;48624;49.812;8.562;2022-09-28T15:04:40;0.70;;;0.35;;
62332;SDS011;48624;49.812;8.562;2022-09-28T15:07:16;1.73;;;0.50;;
62332;SDS011;48624;49.812;8.562;2022-09-28T15:09:57;1.38;;;0.40;;
62332;SDS011;48624;49.812;8.562;2022-09-28T15:12:26;1.45;;;0.20;;
62332;SDS011;48624;49.812;8.562;2022-09-28T15:14:55;4.03;;;0.60;;
62332;SDS011;48624;49.812;8.562;2022-09-28T15:17:26;0.75;;;0.40;;
62332;SDS011;48624;49.812;8.562;2022-09-28T15:22:43;1.35;;;0.50;;
62332;SDS011;48624;49.812;8.562;2022-09-28T15:25:13;0.60;;;0.30;;
62332;SDS011;48624;49.812;8.562;2022-09-28T15:27:42;3.90;;;0.40;;
62332;SDS011;48624;49.812;8.562;2022-09-28T15:32:39;0.90;;;0.22;;
62332;SDS011;48624;49.812;8.562;2022-09-28T15:35:16;0.95;;;0.30;;
62332;SDS011;48624;49.812;8.562;2022-09-28T15:37:44;2.55;;;0.60;;
62332;SDS011;48624;49.812;8.562;2022-09-28T15:40:14;0.63;;;0.50;;
62332;SDS011;48624;49.812;8.562;2022-09-28T15:42:41;0.22;;;0.20;;
62332;SDS011;48624;49.812;8.562;2022-09-28T15:47:37;1.52;;;0.40;;
62332;SDS011;48624;49.812;8.562;2022-09-28T15:53:02;1.65;;;0.50;;
62332;SDS011;48624;49.812;8.562;2022-09-28T15:55:33;1.00;;;0.60;;
62332;SDS011;48624;49.812;8.562;2022-09-28T15:58:21;1.17;;;0.55;;
62332;SDS011;48624;49.812;8.562;2022-09-28T16:00:49;1.80;;;0.40;;
62332;SDS011;48624;49.812;8.562;2022-09-28T16:03:35;3.95;;;0.57;;
62332;SDS011;48624;49.812;8.562;2022-09-28T16:06:05;0.88;;;0.52;;
62332;SDS011;48624;49.812;8.562;2022-09-28T16:08:37;1.77;;;0.50;;
62332;SDS011;48624;49.812;8.562;2022-09-28T16:11:23;1.00;;;0.50;;
62332;SDS011;48624;49.812;8.562;2022-09-28T16:13:59;2.58;;;0.57;;
62332;SDS011;48624;49.812;8.562;2022-09-28T16:16:28;1.25;;;0.40;;
62332;SDS011;48624;49.812;8.562;2022-09-28T16:18:57;0.90;;;0.60;;
62332;SDS011;48624;49.812;8.562;2022-09-28T16:23:55;2.00;;;0.52;;
62332;SDS011;48624;49.812;8.562;2022-09-28T16:26:34;2.47;;;0.65;;
62332;SDS011;48624;49.812;8.562;2022-09-28T16:32:43;2.17;;;0.50;;
62332;SDS011;48624;49.812;8.562;2022-09-28T16:37:34;2.40;;;0.52;;
62332;SDS011;48624;49.812;8.562;2022-09-28T16:40:00;1.15;;;0.63;;
62332;SDS011;48624;49.812;8.562;2022-09-28T16:42:26;0.82;;;0.50;;
62332;SDS011;48624;49.812;8.562;2022-09-28T16:44:52;1.00;;;0.80;;
62332;SDS011;48624;49.812;8.562;2022-09-28T16:47:20;1.05;;;0.40;;
62332;SDS011;48624;49.812;8.562;2022-09-28T16:49:47;0.88;;;0.50;;
62332;SDS011;48624;49.812;8.562;2022-09-28T16:52:13;2.75;;;0.52;;
62332;SDS011;48624;49.812;8.562;2022-09-28T16:54:59;2.40;;;0.60;;
62332;SDS011;48624;49.812;8.562;2022-09-28T16:57:39;0.60;;;0.30;;
62332;SDS011;48624;49.812;8.562;2022-09-28T17:00:04;2.17;;;0.60;;
62332;SDS011;48624;49.812;8.562;2022-09-28T17:02:30;1.00;;;0.50;;
62332;SDS011;48624;49.812;8.562;2022-09-28T17:04:56;1.00;;;0.50;;
62332;SDS011;48624;49.812;8.562;2022-09-28T17:07:22;0.90;;;0.60;;
62332;SDS011;48624;49.812;8.562;2022-09-28T17:09:47;1.42;;;0.60;;
62332;SDS011;48624;49.812;8.562;2022-09-28T17:12:17;1.77;;;0.70;;
62332;SDS011;48624;49.812;8.562;2022-09-28T17:14:45;2.00;;;0.82;;
62332;SDS011;48624;49.812;8.562;2022-09-28T17:17:10;1.98;;;1.08;;
62332;SDS011;48624;49.812;8.562;2022-09-28T17:19:36;1.98;;;1.15;;
62332;SDS011;48624;49.812;8.562;2022-09-28T17:22:01;1.30;;;0.80;;
62332;SDS011;48624;49.812;8.562;2022-09-28T17:24:27;3.47;;;2.00;;
62332;SDS011;48624;49.812;8.562;2022-09-28T17:26:52;1.23;;;0.82;;
62332;SDS011;48624;49.812;8.562;2022-09-28T17:29:18;1.67;;;1.02;;
62332;SDS011;48624;49.812;8.562;2022-09-28T17:31:44;2.13;;;1.48;;
62332;SDS011;48624;49.812;8.562;2022-09-28T17:34:11;3.20;;;1.85;;
62332;SDS011;48624;49.812;8.562;2022-09-28T17:36:40;3.33;;;1.77;;
62332;SDS011;48624;49.812;8.562;2022-09-28T17:39:09;3.08;;;1.85;;
62332;SDS011;48624;49.812;8.562;2022-09-28T17:41:36;2.42;;;1.60;;
62332;SDS011;48624;49.812;8.562;2022-09-28T17:44:02;3.33;;;2.30;;
62332;SDS011;48624;49.812;8.562;2022-09-28T17:46:37;4.97;;;3.30;;
62332;SDS011;48624;49.812;8.562;2022-09-28T17:49:09;6.00;;;4.30;;
62332;SDS011;48624;49.812;8.562;2022-09-28T17:51:36;5.15;;;4.13;;
62332;SDS011;48624;49.812;8.562;2022-09-28T17:54:02;5.75;;;3.40;;
62332;SDS011;48624;49.812;8.562;2022-09-28T17:56:29;9.13;;;4.10;;
62332;SDS011;48624;49.812;8.562;2022-09-28T17:58:56;4.95;;;1.42;;
62332;SDS011;48624;49.812;8.562;2022-09-28T18:01:24;2.97;;;1.90;;
62332;SDS011;48624;49.812;8.562;2022-09-28T18:03:49;2.60;;;1.40;;
62332;SDS011;48624;49.812;8.562;2022-09-28T18:06:15;3.47;;;1.35;;
62332;SDS011;48624;49.812;8.562;2022-09-28T18:08:46;7.95;;;3.78;;
62332;SDS011;48624;49.812;8.562;2022-09-28T18:11:12;5.55;;;2.58;;
62332;SDS011;48624;49.812;8.562;2022-09-28T18:13:37;4.15;;;2.05;;
62332;SDS011;48624;49.812;8.562;2022-09-28T18:16:03;3.90;;;2.63;;